This is the latest recevied weather packets stored in our database for station/object KD0SBN. If no packets are shown the sender has not sent any weather packets the latest 10 day(s).
| Time | Temp. | Humidity | Pressure | Rain* | Wind** | Luminosity | Snow |
|---|---|---|---|---|---|---|---|
| 1777902198 | 17.78° C | 37% | 1009.4 hPa | 0 mm | - | - | - |
| 1777901896 | 18.33° C | 37% | 1009.2 hPa | 0 mm | - | - | - |
| 1777901594 | 18.33° C | 37% | 1009.2 hPa | 0 mm | - | - | - |
| 1777901291 | 17.78° C | 37% | 1009.3 hPa | 0 mm | - | - | - |
| 1777900989 | 17.22° C | 38% | 1009.4 hPa | 0 mm | - | - | - |
| 1777900686 | 17.78° C | 38% | 1009.1 hPa | 0 mm | - | - | - |
| 1777900383 | 17.78° C | 37% | 1009.4 hPa | 0 mm | - | - | - |
| 1777900080 | 17.22° C | 37% | 1009.5 hPa | 0 mm | - | - | - |
| 1777899776 | 17.22° C | 37% | 1009.5 hPa | 0 mm | - | - | - |
| 1777899473 | 17.22° C | 37% | 1009.7 hPa | 0 mm | - | - | - |
| 1777899170 | 17.22° C | 37% | 1009.7 hPa | 0 mm | - | - | - |
| 1777898868 | 17.22° C | 37% | 1009.7 hPa | 0 mm | - | - | - |
| 1777898565 | 16.67° C | 36% | 1009.8 hPa | 0 mm | - | - | - |
| 1777898263 | 16.67° C | 36% | 1009.7 hPa | 0 mm | - | - | - |
| 1777897960 | 16.67° C | 36% | 1009.8 hPa | 0 mm | - | - | - |
| 1777897656 | 16.67° C | 36% | 1009.7 hPa | 0 mm | - | - | - |
| 1777897352 | 16.67° C | 35% | 1009.5 hPa | 0 mm | - | - | - |
| 1777897048 | 16.11° C | 36% | 1009.7 hPa | 0 mm | - | - | - |
| 1777896745 | 16.11° C | 36% | 1009.7 hPa | 0 mm | - | - | - |
| 1777896442 | 16.11° C | 35% | 1009.8 hPa | 0 mm | - | - | - |
| 1777896140 | 16.11° C | 34% | 1009.7 hPa | 0 mm | - | - | - |
| 1777895837 | 16.67° C | 34% | 1009.8 hPa | 0 mm | - | - | - |
| 1777895534 | 16.67° C | 33% | 1009.8 hPa | 0 mm | - | - | - |
| 1777895232 | 16.67° C | 34% | 1009.5 hPa | 0 mm | - | - | - |
| 1777894930 | 15.56° C | 35% | 1009.9 hPa | 0 mm | - | - | - |
* Rain latest hour (hover to see other rain measurements)
** Current wind speed in m/s (hover to see current wind gust speed)